createdAt,value
2018-09-20T00:00:34.469Z,8.60
2018-09-20T00:03:10.953Z,7.77
2018-09-20T00:05:45.892Z,8.63
2018-09-20T00:08:21.453Z,8.40
2018-09-20T00:10:56.500Z,8.40
2018-09-20T00:13:33.394Z,8.57
2018-09-20T00:16:08.450Z,8.07
2018-09-20T00:18:44.419Z,8.60
2018-09-20T00:21:19.873Z,8.07
2018-09-20T00:23:56.450Z,7.87
2018-09-20T00:26:32.833Z,8.00
2018-09-20T00:29:09.621Z,8.23
2018-09-20T00:31:46.616Z,8.50
2018-09-20T00:34:22.585Z,8.60
2018-09-20T00:36:57.833Z,8.53
2018-09-20T00:39:35.040Z,9.00
2018-09-20T00:42:10.294Z,8.80
2018-09-20T00:44:46.387Z,8.60
2018-09-20T00:47:22.454Z,8.93
2018-09-20T00:49:59.427Z,8.90
2018-09-20T00:52:35.292Z,9.20
2018-09-20T00:55:10.657Z,8.80
2018-09-20T00:57:47.349Z,7.97
2018-09-20T01:00:23.230Z,8.57
2018-09-20T01:03:00.391Z,8.13
2018-09-20T01:05:35.373Z,8.43
2018-09-20T01:08:10.805Z,8.57
2018-09-20T01:10:48.410Z,9.10
2018-09-20T01:13:24.176Z,9.60
2018-09-20T01:16:01.377Z,8.73
2018-09-20T01:18:36.537Z,9.60
2018-09-20T01:21:12.812Z,9.60
2018-09-20T01:23:49.902Z,8.87
2018-09-20T01:26:25.464Z,9.30
2018-09-20T01:29:02.255Z,9.20
2018-09-20T01:31:40.695Z,9.37
2018-09-20T01:34:20.672Z,8.87
2018-09-20T01:36:55.913Z,9.40
2018-09-20T01:39:32.678Z,8.50
2018-09-20T01:42:08.857Z,9.37
2018-09-20T01:44:45.256Z,9.40
2018-09-20T01:47:20.485Z,9.70
2018-09-20T01:49:55.353Z,9.97
2018-09-20T01:52:31.942Z,9.57
2018-09-20T01:55:07.793Z,8.93
2018-09-20T01:57:43.241Z,9.23
2018-09-20T02:00:18.289Z,9.53
2018-09-20T02:02:53.345Z,9.33
2018-09-20T02:05:29.428Z,9.57
2018-09-20T02:08:07.117Z,10.30
2018-09-20T02:10:42.366Z,9.53
2018-09-20T02:13:18.445Z,9.00
2018-09-20T02:15:54.519Z,10.13
2018-09-20T02:18:31.917Z,9.93
2018-09-20T02:21:07.991Z,9.53
2018-09-20T02:23:42.746Z,9.23
2018-09-20T02:26:17.699Z,10.57
2018-09-20T02:28:52.951Z,10.37
2018-09-20T02:31:27.869Z,10.13
2018-09-20T02:34:04.473Z,10.33
2018-09-20T02:36:39.509Z,10.53
2018-09-20T02:39:15.178Z,11.07
2018-09-20T02:41:49.651Z,10.00
2018-09-20T02:44:25.166Z,10.60
2018-09-20T02:47:01.133Z,10.77
2018-09-20T02:49:36.817Z,10.37
2018-09-20T02:52:11.634Z,10.17
2018-09-20T02:54:48.125Z,10.43
2018-09-20T02:57:22.959Z,10.17
2018-09-20T02:59:58.221Z,10.00
2018-09-20T03:02:33.571Z,10.33
2018-09-20T03:05:10.062Z,10.53
2018-09-20T03:07:45.507Z,9.47
2018-09-20T03:10:19.957Z,10.27
2018-09-20T03:12:55.095Z,9.27
2018-09-20T03:15:32.601Z,9.40
2018-09-20T03:18:08.666Z,9.97
2018-09-20T03:20:42.817Z,10.43
2018-09-20T03:23:18.975Z,9.50
2018-09-20T03:25:55.969Z,10.50
2018-09-20T03:28:31.134Z,10.23
2018-09-20T03:31:07.833Z,10.40
2018-09-20T03:33:43.790Z,10.77
2018-09-20T03:36:20.266Z,9.80
2018-09-20T03:38:56.026Z,10.07
2018-09-20T03:41:31.082Z,10.10
2018-09-20T03:44:09.110Z,10.90
2018-09-20T03:46:46.119Z,9.83
2018-09-20T03:49:22.261Z,9.70
2018-09-20T03:51:58.571Z,10.50
2018-09-20T03:54:36.981Z,10.60
2018-09-20T03:57:12.738Z,10.30
2018-09-20T03:59:47.895Z,10.53
2018-09-20T04:02:23.370Z,9.80
2018-09-20T04:04:58.928Z,10.70
2018-09-20T04:07:35.499Z,10.07
2018-09-20T04:10:11.268Z,9.80
2018-09-20T04:12:46.413Z,9.73
2018-09-20T04:15:23.615Z,11.67
2018-09-20T04:17:59.886Z,11.37
2018-09-20T04:20:36.977Z,11.47
2018-09-20T04:23:12.349Z,11.00
2018-09-20T04:25:47.696Z,10.70
2018-09-20T04:28:25.418Z,10.17
2018-09-20T04:31:00.660Z,11.90
2018-09-20T04:33:39.093Z,11.70
2018-09-20T04:36:14.858Z,10.60
2018-09-20T04:38:51.846Z,10.77
2018-09-20T04:41:27.412Z,11.33
2018-09-20T04:44:05.454Z,12.07
2018-09-20T04:46:39.836Z,11.43
2018-09-20T04:49:14.180Z,12.03
2018-09-20T04:51:48.428Z,12.23
2018-09-20T04:54:22.670Z,12.20
2018-09-20T04:56:56.893Z,11.53
2018-09-20T04:59:31.071Z,12.43
2018-09-20T05:02:05.458Z,11.83
2018-09-20T05:04:39.733Z,13.30
2018-09-20T05:07:13.999Z,11.90
2018-09-20T05:09:49.765Z,12.47
2018-09-20T05:12:25.118Z,12.07
2018-09-20T05:15:00.578Z,12.43
2018-09-20T05:17:35.425Z,11.67
2018-09-20T05:20:10.698Z,11.23
2018-09-20T05:22:46.553Z,11.53
2018-09-20T05:25:28.966Z,11.90
2018-09-20T05:28:05.755Z,11.73
2018-09-20T05:30:42.543Z,11.77
2018-09-20T05:33:18.728Z,12.00
2018-09-20T05:35:54.810Z,10.80
2018-09-20T05:38:30.968Z,10.63
2018-09-20T05:41:08.474Z,11.43
2018-09-20T05:43:43.942Z,11.13
2018-09-20T05:46:20.921Z,11.43
2018-09-20T05:48:56.504Z,11.83
2018-09-20T05:51:31.938Z,12.17
2018-09-20T05:54:08.937Z,11.50
2018-09-20T05:56:44.501Z,11.37
2018-09-20T05:59:19.627Z,12.20
2018-09-20T06:01:54.185Z,11.80
2018-09-20T06:04:29.115Z,11.83
2018-09-20T06:07:03.578Z,11.60
2018-09-20T06:09:38.813Z,11.63
2018-09-20T06:12:14.485Z,11.83
2018-09-20T06:14:48.830Z,11.83
2018-09-20T06:17:24.712Z,11.43
2018-09-20T06:19:59.840Z,11.87
2018-09-20T06:22:34.222Z,12.30
2018-09-20T06:25:08.629Z,12.83
2018-09-20T06:27:42.919Z,12.23
2018-09-20T06:30:18.566Z,12.77
2018-09-20T06:32:54.061Z,12.07
2018-09-20T06:35:28.959Z,11.70
2018-09-20T06:38:06.193Z,12.63
2018-09-20T06:40:42.893Z,12.40
2018-09-20T06:43:17.149Z,13.67
2018-09-20T06:45:51.449Z,13.07
2018-09-20T06:48:25.778Z,13.10
2018-09-20T06:51:00.252Z,12.80
2018-09-20T06:53:34.655Z,12.53
2018-09-20T06:56:08.946Z,12.53
2018-09-20T06:58:43.193Z,12.47
2018-09-20T07:01:18.945Z,12.60
2018-09-20T07:03:55.841Z,12.10
2018-09-20T07:06:30.506Z,12.17
2018-09-20T07:09:08.043Z,12.37
2018-09-20T07:11:42.246Z,12.23
2018-09-20T07:14:16.553Z,12.37
2018-09-20T07:16:50.803Z,13.40
2018-09-20T07:19:25.121Z,13.60
2018-09-20T07:21:59.468Z,13.23
2018-09-20T07:24:33.807Z,12.93
2018-09-20T07:27:08.131Z,13.90
2018-09-20T07:29:42.341Z,12.73
2018-09-20T07:32:16.626Z,12.30
2018-09-20T07:34:50.965Z,12.77
2018-09-20T07:37:25.253Z,11.70
2018-09-20T07:39:59.485Z,11.37
2018-09-20T07:42:33.833Z,11.40
2018-09-20T07:45:08.090Z,10.50
2018-09-20T07:47:42.318Z,10.73
2018-09-20T07:50:16.731Z,10.37
2018-09-20T07:52:52.036Z,9.97
2018-09-20T07:55:26.357Z,10.20
2018-09-20T07:58:00.572Z,10.43
2018-09-20T08:00:35.040Z,10.00
2018-09-20T08:03:09.333Z,10.10
2018-09-20T08:05:43.596Z,10.73
2018-09-20T08:08:17.995Z,8.97
2018-09-20T08:10:52.242Z,9.30
2018-09-20T08:13:26.548Z,9.10
2018-09-20T08:16:00.958Z,8.97
2018-09-20T08:18:35.221Z,9.20
2018-09-20T08:21:09.706Z,9.20
2018-09-20T08:23:44.046Z,9.10
2018-09-20T08:26:18.275Z,8.63
2018-09-20T08:28:52.668Z,8.57
2018-09-20T08:31:27.017Z,8.90
2018-09-20T08:34:01.334Z,9.03
2018-09-20T08:36:35.617Z,9.10
2018-09-20T08:39:11.463Z,8.33
2018-09-20T08:41:45.862Z,8.07
2018-09-20T08:44:20.114Z,8.60
2018-09-20T08:46:54.452Z,8.07
2018-09-20T08:49:28.816Z,8.97
2018-09-20T08:52:03.244Z,9.40
2018-09-20T08:54:37.529Z,8.90
2018-09-20T08:57:11.938Z,8.90
2018-09-20T08:59:46.093Z,10.00
2018-09-20T09:02:20.438Z,10.23
2018-09-20T09:04:54.819Z,10.17
2018-09-20T09:07:29.060Z,11.60
2018-09-20T09:10:03.300Z,12.20
2018-09-20T09:12:37.516Z,10.83
2018-09-20T09:15:11.813Z,12.07
2018-09-20T09:17:46.243Z,10.87
2018-09-20T09:20:20.607Z,11.13
2018-09-20T09:22:54.991Z,10.37
2018-09-20T09:25:29.342Z,10.37
2018-09-20T09:28:03.728Z,10.50
2018-09-20T09:30:38.210Z,9.60
2018-09-20T09:33:12.571Z,8.30
2018-09-20T09:35:46.783Z,8.00
2018-09-20T09:38:21.101Z,8.27
2018-09-20T09:40:55.502Z,7.33
2018-09-20T09:43:29.734Z,7.87
2018-09-20T09:46:03.958Z,7.80
2018-09-20T09:48:38.360Z,7.73
2018-09-20T09:51:12.780Z,7.77
2018-09-20T09:53:47.045Z,8.23
2018-09-20T09:56:21.380Z,7.87
2018-09-20T09:58:55.781Z,7.83
2018-09-20T10:01:29.998Z,7.57
2018-09-20T10:04:04.387Z,7.30
2018-09-20T10:06:38.619Z,7.80
2018-09-20T10:09:13.782Z,8.20
2018-09-20T10:11:47.979Z,6.93
2018-09-20T10:14:22.200Z,7.07
2018-09-20T10:16:57.969Z,7.17
2018-09-20T10:19:32.334Z,7.03
2018-09-20T10:22:06.650Z,7.60
2018-09-20T10:24:40.960Z,6.77
2018-09-20T10:27:15.225Z,6.53
2018-09-20T10:29:49.600Z,7.20
2018-09-20T10:32:24.000Z,7.50
2018-09-20T10:35:01.337Z,7.33
2018-09-20T10:37:35.848Z,7.83
2018-09-20T10:40:13.697Z,7.43
2018-09-20T10:42:50.081Z,7.80
2018-09-20T10:45:26.878Z,8.10
2018-09-20T10:48:02.948Z,8.10
2018-09-20T10:50:38.410Z,8.37
2018-09-20T10:53:13.857Z,7.97
2018-09-20T10:55:50.353Z,8.20
2018-09-20T10:58:26.101Z,7.37
2018-09-20T11:01:02.200Z,7.07
2018-09-20T11:03:36.521Z,7.10
2018-09-20T11:06:10.723Z,7.30
2018-09-20T11:08:45.038Z,7.13
2018-09-20T11:11:19.347Z,6.90
2018-09-20T11:13:53.717Z,6.97
2018-09-20T11:16:27.950Z,6.93
2018-09-20T11:19:02.287Z,6.63
2018-09-20T11:21:36.584Z,6.07
2018-09-20T11:24:10.918Z,6.73
2018-09-20T11:26:45.123Z,6.77
2018-09-20T11:29:20.491Z,6.57
2018-09-20T11:31:55.240Z,6.40
2018-09-20T11:34:29.829Z,6.63
2018-09-20T11:37:06.389Z,6.53
2018-09-20T11:39:40.629Z,6.70
2018-09-20T11:42:14.955Z,6.73
2018-09-20T11:44:50.820Z,6.73
2018-09-20T11:47:26.891Z,6.63
2018-09-20T11:50:02.141Z,6.40
2018-09-20T11:52:36.553Z,6.27
2018-09-20T11:55:10.878Z,6.57
2018-09-20T11:57:45.177Z,6.23
2018-09-20T12:00:21.504Z,6.10
2018-09-20T12:02:56.461Z,6.40
2018-09-20T12:05:32.159Z,6.20
2018-09-20T12:08:08.198Z,6.73
2018-09-20T12:10:43.645Z,6.53
2018-09-20T12:13:20.650Z,6.33
2018-09-20T12:15:55.890Z,6.37
2018-09-20T12:18:30.938Z,6.93
2018-09-20T12:21:06.495Z,6.67
2018-09-20T12:23:41.647Z,6.10
2018-09-20T12:26:15.977Z,6.73
2018-09-20T12:28:50.216Z,6.20
2018-09-20T12:31:24.573Z,6.57
2018-09-20T12:33:58.868Z,5.87
2018-09-20T12:36:33.067Z,6.27
2018-09-20T12:39:09.555Z,5.80
2018-09-20T12:41:43.825Z,6.30
2018-09-20T12:44:18.187Z,6.57
2018-09-20T12:46:52.355Z,6.30
2018-09-20T12:49:26.690Z,6.97
2018-09-20T12:52:01.043Z,6.30
2018-09-20T12:54:35.468Z,6.10
2018-09-20T12:57:09.723Z,6.20
2018-09-20T12:59:44.050Z,6.20
2018-09-20T13:02:18.391Z,5.80
2018-09-20T13:04:52.462Z,6.67
2018-09-20T13:07:26.812Z,6.73
2018-09-20T13:10:01.135Z,6.43
2018-09-20T13:12:35.336Z,6.43
2018-09-20T13:15:09.563Z,5.97
2018-09-20T13:17:43.781Z,6.50
2018-09-20T13:20:18.045Z,5.77
2018-09-20T13:22:52.234Z,5.37
2018-09-20T13:25:26.530Z,6.10
2018-09-20T13:28:00.900Z,5.90
2018-09-20T13:30:35.256Z,4.87
2018-09-20T13:33:09.742Z,5.20
2018-09-20T13:35:44.767Z,5.00
2018-09-20T13:38:19.200Z,5.27
2018-09-20T13:40:53.465Z,4.93
2018-09-20T13:43:28.056Z,5.33
2018-09-20T13:46:03.186Z,5.20
2018-09-20T13:48:38.048Z,5.03
2018-09-20T13:51:12.902Z,5.50
2018-09-20T13:53:47.733Z,5.20
2018-09-20T13:56:22.579Z,5.37
2018-09-20T13:58:57.885Z,5.13
2018-09-20T14:01:33.904Z,5.30
2018-09-20T14:07:14.289Z,4.83
2018-09-20T14:09:50.404Z,5.40
2018-09-20T14:12:24.632Z,5.40
2018-09-20T14:14:59.733Z,5.30
2018-09-20T14:17:34.743Z,5.47
2018-09-20T14:20:10.506Z,5.40
2018-09-20T14:22:46.550Z,5.07
2018-09-20T14:25:22.922Z,5.47
2018-09-20T14:27:58.877Z,5.70
2018-09-20T14:30:41.710Z,5.60
2018-09-20T14:35:44.753Z,5.30
2018-09-20T14:38:21.754Z,5.77
2018-09-20T14:40:57.722Z,5.60
2018-09-20T14:43:33.161Z,5.20
2018-09-20T14:46:10.460Z,5.70
2018-09-20T14:48:46.217Z,5.80
2018-09-20T14:51:24.501Z,5.33
2018-09-20T14:53:59.589Z,5.33
2018-09-20T14:56:35.561Z,5.70
2018-09-20T14:59:11.128Z,5.37
2018-09-20T15:01:47.500Z,5.53
2018-09-20T15:04:25.532Z,5.73
2018-09-20T15:07:01.489Z,5.80
2018-09-20T15:09:37.562Z,5.70
2018-09-20T15:12:14.073Z,5.63
2018-09-20T15:14:51.038Z,5.93
2018-09-20T15:17:27.120Z,5.77
2018-09-20T15:20:01.957Z,6.07
2018-09-20T15:22:36.696Z,5.70
2018-09-20T15:25:12.736Z,5.53
2018-09-20T15:27:48.228Z,5.33
2018-09-20T15:30:23.885Z,5.40
2018-09-20T15:32:58.937Z,6.00
2018-09-20T15:35:35.514Z,5.50
2018-09-20T15:38:11.389Z,6.10
2018-09-20T15:40:46.963Z,5.47
2018-09-20T15:43:24.562Z,5.90
2018-09-20T15:46:00.732Z,5.70
2018-09-20T15:48:38.129Z,5.40
2018-09-20T15:51:14.841Z,5.77
2018-09-20T15:53:51.104Z,5.77
2018-09-20T15:56:25.942Z,5.13
2018-09-20T15:59:01.505Z,5.37
2018-09-20T16:01:39.030Z,5.57
2018-09-20T16:04:14.768Z,5.60
2018-09-20T16:06:54.625Z,5.47
2018-09-20T16:09:30.909Z,5.97
2018-09-20T16:12:06.882Z,5.83
2018-09-20T16:14:41.983Z,5.10
2018-09-20T16:17:18.521Z,5.60
2018-09-20T16:19:54.373Z,5.60
2018-09-20T16:22:29.529Z,5.97
2018-09-20T16:25:04.070Z,6.30
2018-09-20T16:27:40.648Z,5.90
2018-09-20T16:30:29.733Z,6.13
2018-09-20T16:33:27.832Z,5.13
2018-09-20T16:36:12.074Z,5.73
2018-09-20T16:38:57.570Z,5.67
2018-09-20T16:41:38.575Z,6.70
2018-09-20T16:44:13.901Z,6.00
2018-09-20T16:46:50.802Z,5.63
2018-09-20T16:49:25.653Z,5.30
2018-09-20T16:52:01.136Z,5.30
2018-09-20T16:54:36.253Z,5.60
2018-09-20T16:57:11.702Z,5.27
2018-09-20T16:59:47.368Z,5.27
2018-09-20T17:02:23.786Z,5.57
2018-09-20T17:04:58.075Z,5.40
2018-09-20T17:07:32.939Z,5.97
2018-09-20T17:10:08.029Z,5.57
2018-09-20T17:12:42.402Z,5.37
2018-09-20T17:15:18.375Z,5.80
2018-09-20T17:17:53.631Z,5.60
2018-09-20T17:20:29.705Z,5.50
2018-09-20T17:23:05.197Z,5.30
2018-09-20T17:25:40.806Z,5.30
2018-09-20T17:28:15.971Z,5.07
2018-09-20T17:30:52.053Z,5.40
2018-09-20T17:33:27.409Z,5.93
2018-09-20T17:36:02.965Z,5.60
2018-09-20T17:38:44.270Z,5.50
2018-09-20T17:41:23.382Z,5.90
2018-09-20T17:44:00.309Z,7.60
2018-09-20T17:46:35.546Z,6.33
2018-09-20T17:49:11.363Z,6.57
2018-09-20T17:51:45.942Z,6.50
2018-09-20T17:57:00.745Z,6.30
2018-09-20T17:59:36.493Z,6.87
2018-09-20T18:02:12.162Z,6.20
2018-09-20T18:04:47.753Z,6.20
2018-09-20T18:07:23.493Z,6.73
2018-09-20T18:09:59.469Z,6.27
2018-09-20T18:12:35.132Z,6.20
2018-09-20T18:15:11.002Z,6.47
2018-09-20T18:17:45.521Z,5.97
2018-09-20T18:20:23.027Z,6.33
2018-09-20T18:22:58.898Z,5.63
2018-09-20T18:25:35.280Z,5.60
2018-09-20T18:28:12.382Z,5.73
2018-09-20T18:30:48.866Z,6.03
2018-09-20T18:33:24.533Z,5.40
2018-09-20T18:35:59.777Z,5.70
2018-09-20T18:38:37.090Z,5.50
2018-09-20T18:41:12.633Z,5.70
2018-09-20T18:43:48.606Z,5.40
2018-09-20T18:46:24.985Z,5.90
2018-09-20T18:49:00.133Z,5.60
2018-09-20T18:51:37.842Z,5.80
2018-09-20T18:54:13.307Z,5.37
2018-09-20T18:56:49.790Z,5.97
2018-09-20T18:59:26.373Z,6.20
2018-09-20T19:02:03.357Z,5.80
2018-09-20T19:04:40.965Z,6.00
2018-09-20T19:07:18.451Z,5.77
2018-09-20T19:09:54.761Z,5.90
2018-09-20T19:12:32.897Z,5.50
2018-09-20T19:15:11.423Z,5.80
2018-09-20T19:17:49.028Z,6.10
2018-09-20T19:20:25.504Z,5.93
2018-09-20T19:23:01.067Z,5.90
2018-09-20T19:25:37.654Z,5.77
2018-09-20T19:28:13.822Z,6.10
2018-09-20T19:30:50.209Z,5.73
2018-09-20T19:33:27.201Z,6.03
2018-09-20T19:36:02.181Z,6.00
2018-09-20T19:38:38.110Z,5.57
2018-09-20T19:41:12.712Z,6.80
2018-09-20T19:43:47.244Z,6.50
2018-09-20T19:46:22.125Z,7.17
2018-09-20T19:48:57.126Z,6.30
2018-09-20T19:51:31.621Z,6.50
2018-09-20T19:54:06.339Z,5.80
2018-09-20T19:56:41.813Z,6.40
2018-09-20T19:59:16.616Z,6.10
2018-09-20T20:01:53.081Z,6.67
2018-09-20T20:04:27.971Z,6.43
2018-09-20T20:07:03.130Z,6.63
2018-09-20T20:09:37.471Z,6.87
2018-09-20T20:12:17.450Z,6.60
2018-09-20T20:14:51.809Z,6.70
2018-09-20T20:17:26.076Z,6.60
2018-09-20T20:20:00.257Z,6.33
2018-09-20T20:22:34.501Z,6.37
2018-09-20T20:25:08.889Z,6.37
2018-09-20T20:27:43.221Z,7.10
2018-09-20T20:30:17.462Z,7.00
2018-09-20T20:32:52.528Z,7.87
2018-09-20T20:35:26.780Z,7.27
2018-09-20T20:38:01.027Z,7.57
2018-09-20T20:40:35.338Z,6.63
2018-09-20T20:43:09.579Z,6.80
2018-09-20T20:45:43.831Z,7.60
2018-09-20T20:48:18.152Z,7.90
2018-09-20T20:50:52.391Z,7.47
2018-09-20T20:53:26.739Z,6.90
2018-09-20T20:56:01.238Z,7.70
2018-09-20T20:58:35.702Z,7.53
2018-09-20T21:01:14.088Z,6.90
2018-09-20T21:03:48.959Z,7.63
2018-09-20T21:06:33.104Z,6.83
2018-09-20T21:09:09.163Z,7.97
2018-09-20T21:11:44.974Z,7.43
2018-09-20T21:14:23.769Z,7.80
2018-09-20T21:16:58.988Z,7.10
2018-09-20T21:19:34.931Z,7.97
2018-09-20T21:22:09.989Z,7.63
2018-09-20T21:24:45.637Z,8.13
2018-09-20T21:27:22.751Z,7.97
2018-09-20T21:29:57.884Z,8.30
2018-09-20T21:32:33.149Z,8.00
2018-09-20T21:35:08.081Z,8.20
2018-09-20T21:37:43.347Z,9.10
2018-09-20T21:40:20.034Z,8.47
2018-09-20T21:42:56.102Z,8.53
2018-09-20T21:45:31.363Z,8.60
2018-09-20T21:48:07.537Z,8.37
2018-09-20T21:50:43.704Z,8.63
2018-09-20T21:53:20.722Z,8.80
2018-09-20T21:55:56.367Z,8.47
2018-09-20T21:58:31.727Z,9.07
2018-09-20T22:01:13.121Z,8.87
2018-09-20T22:03:51.063Z,8.00
2018-09-20T22:06:26.592Z,8.07
2018-09-20T22:09:01.961Z,8.53
2018-09-20T22:11:38.050Z,8.80
2018-09-20T22:14:14.307Z,8.63
2018-09-20T22:16:49.871Z,8.20
2018-09-20T22:19:25.845Z,8.40
2018-09-20T22:22:00.882Z,8.60
2018-09-20T22:24:37.470Z,8.57
2018-09-20T22:27:11.914Z,8.93
2018-09-20T22:29:46.252Z,9.87
2018-09-20T22:32:20.703Z,9.20
2018-09-20T22:34:55.094Z,9.67
2018-09-20T22:37:29.317Z,9.13
2018-09-20T22:40:04.325Z,8.93
2018-09-20T22:42:38.810Z,9.33
2018-09-20T22:45:13.291Z,8.67
2018-09-20T22:47:47.514Z,9.00
2018-09-20T22:50:21.768Z,9.53
2018-09-20T22:52:57.672Z,9.73
2018-09-20T22:55:31.979Z,9.63
2018-09-20T22:58:06.410Z,9.47
2018-09-20T23:00:40.774Z,9.20
2018-09-20T23:03:14.981Z,10.07
2018-09-20T23:05:51.083Z,9.00
2018-09-20T23:08:26.428Z,9.30
2018-09-20T23:11:01.999Z,9.37
2018-09-20T23:13:37.236Z,9.77
2018-09-20T23:16:12.385Z,9.93
2018-09-20T23:18:47.948Z,10.17
2018-09-20T23:21:23.326Z,10.00
2018-09-20T23:23:58.550Z,9.97
2018-09-20T23:26:33.294Z,9.77
2018-09-20T23:29:08.948Z,10.23
2018-09-20T23:31:44.461Z,10.93
2018-09-20T23:34:18.897Z,10.67
2018-09-20T23:36:54.309Z,11.07
2018-09-20T23:39:29.258Z,9.80
2018-09-20T23:42:06.552Z,9.83
2018-09-20T23:44:41.373Z,10.13
2018-09-20T23:47:17.380Z,10.70
2018-09-20T23:49:53.036Z,10.60
2018-09-20T23:52:28.309Z,9.53
2018-09-20T23:55:03.530Z,10.07
2018-09-20T23:57:39.099Z,10.47
